createdAt,value
2023-02-01T00:04:41.501Z,7.43
2023-02-01T00:09:42.934Z,8.13
2023-02-01T00:14:44.288Z,7.40
2023-02-01T00:19:45.643Z,6.80
2023-02-01T00:24:47.045Z,5.93
2023-02-01T00:29:48.376Z,6.13
2023-02-01T00:34:49.734Z,5.55
2023-02-01T00:39:51.471Z,5.57
2023-02-01T00:44:52.829Z,4.72
2023-02-01T00:49:54.177Z,4.10
2023-02-01T00:54:55.540Z,3.65
2023-02-01T00:59:56.868Z,3.28
2023-02-01T01:04:58.184Z,3.83
2023-02-01T01:09:59.502Z,3.80
2023-02-01T01:15:00.942Z,3.67
2023-02-01T01:20:02.377Z,3.22
2023-02-01T01:25:03.864Z,3.50
2023-02-01T01:30:05.444Z,2.85
2023-02-01T01:35:06.973Z,2.92
2023-02-01T01:40:10.366Z,2.47
2023-02-01T01:45:17.930Z,2.60
2023-02-01T01:50:21.817Z,2.50
2023-02-01T01:55:24.734Z,3.03
2023-02-01T02:00:26.192Z,2.80
2023-02-01T02:05:30.140Z,2.13
2023-02-01T02:10:50.413Z,2.15
2023-02-01T02:16:14.482Z,2.42
2023-02-01T02:21:16.001Z,2.03
2023-02-01T02:26:32.004Z,2.92
2023-02-01T02:31:42.640Z,3.28
2023-02-01T02:36:49.796Z,2.60
2023-02-01T02:42:16.623Z,2.85
2023-02-01T02:47:26.929Z,2.65
2023-02-01T02:52:57.972Z,3.42
2023-02-01T02:58:18.264Z,2.75
2023-02-01T03:03:38.201Z,2.85
2023-02-01T03:08:39.577Z,3.08
2023-02-01T03:13:55.421Z,3.55
2023-02-01T03:19:06.307Z,3.55
2023-02-01T03:24:13.604Z,3.55
2023-02-01T03:29:17.249Z,3.28
2023-02-01T03:34:19.040Z,3.35
2023-02-01T03:39:31.025Z,1.90
2023-02-01T03:44:41.626Z,3.20
2023-02-01T03:49:44.436Z,2.47
2023-02-01T03:54:46.907Z,3.85
2023-02-01T03:59:48.283Z,2.58
2023-02-01T04:04:49.745Z,2.28
2023-02-01T04:09:53.848Z,2.33
2023-02-01T04:14:55.171Z,2.60
2023-02-01T04:19:56.501Z,2.65
2023-02-01T04:24:57.859Z,2.67
2023-02-01T04:29:59.192Z,3.08
2023-02-01T04:35:00.515Z,3.20
2023-02-01T04:40:01.935Z,3.13
2023-02-01T04:45:03.653Z,2.35
2023-02-01T04:50:06.635Z,2.85
2023-02-01T04:55:08.783Z,2.95
2023-02-01T05:00:10.576Z,2.28
2023-02-01T05:05:11.976Z,3.45
2023-02-01T05:10:13.413Z,2.85
2023-02-01T05:15:14.802Z,2.35
2023-02-01T05:20:16.192Z,2.25
2023-02-01T05:25:17.514Z,2.70
2023-02-01T05:30:18.922Z,2.42
2023-02-01T05:35:20.612Z,2.30
2023-02-01T05:40:22.598Z,2.58
2023-02-01T05:45:24.123Z,2.90
2023-02-01T05:50:25.533Z,2.47
2023-02-01T05:55:31.825Z,2.70
2023-02-01T06:00:33.159Z,2.63
2023-02-01T06:05:34.479Z,3.05
2023-02-01T06:10:35.817Z,2.33
2023-02-01T06:15:38.376Z,2.35
2023-02-01T06:20:40.359Z,2.65
2023-02-01T06:25:41.722Z,1.83
2023-02-01T06:30:46.849Z,3.58
2023-02-01T06:35:48.844Z,2.90
2023-02-01T06:40:53.335Z,3.42
2023-02-01T06:45:54.816Z,2.25
2023-02-01T06:50:56.185Z,3.38
2023-02-01T06:56:01.797Z,1.77
2023-02-01T07:01:06.651Z,1.85
2023-02-01T07:06:08.501Z,2.65
2023-02-01T07:11:11.164Z,3.13
2023-02-01T07:16:13.942Z,3.13
2023-02-01T07:21:15.342Z,3.08
2023-02-01T07:26:17.429Z,2.50
2023-02-01T07:31:21.668Z,3.67
2023-02-01T07:36:23.027Z,3.10
2023-02-01T07:41:24.430Z,2.92
2023-02-01T07:46:25.782Z,2.00
2023-02-01T07:51:27.180Z,2.75
2023-02-01T07:56:28.601Z,2.90
2023-02-01T08:01:30.071Z,2.60
2023-02-01T08:06:34.709Z,2.90
2023-02-01T08:11:38.684Z,2.50
2023-02-01T08:16:40.198Z,1.65
2023-02-01T08:21:41.618Z,2.35
2023-02-01T08:26:43.071Z,3.10
2023-02-01T08:31:44.645Z,2.65
2023-02-01T08:36:46.176Z,2.78
2023-02-01T08:42:07.562Z,2.50
2023-02-01T08:47:08.957Z,3.30
2023-02-01T08:52:15.792Z,3.03
2023-02-01T08:57:18.213Z,2.10
2023-02-01T09:02:19.602Z,2.85
2023-02-01T09:07:22.063Z,2.58
2023-02-01T09:12:23.468Z,2.63
2023-02-01T09:17:24.942Z,3.28
2023-02-01T09:22:26.266Z,3.00
2023-02-01T09:27:27.814Z,2.42
2023-02-01T09:32:29.295Z,2.65
2023-02-01T09:37:30.633Z,2.03
2023-02-01T09:42:34.952Z,2.88
2023-02-01T09:47:37.185Z,2.55
2023-02-01T09:52:46.585Z,2.30
2023-02-01T10:02:50.306Z,2.63
2023-02-01T10:08:11.881Z,2.47
2023-02-01T10:13:28.347Z,2.42
2023-02-01T10:18:45.614Z,2.70
2023-02-01T10:24:01.059Z,2.63
2023-02-01T10:29:05.828Z,1.70
2023-02-01T10:34:33.521Z,2.88
2023-02-01T10:39:35.109Z,2.65
2023-02-01T10:44:38.181Z,3.22
2023-02-01T10:49:41.819Z,2.75
2023-02-01T10:54:43.259Z,1.88
2023-02-01T10:59:45.944Z,2.80
2023-02-01T11:04:47.452Z,2.13
2023-02-01T11:09:50.513Z,2.17
2023-02-01T11:14:51.909Z,2.55
2023-02-01T11:20:00.338Z,2.60
2023-02-01T11:25:02.709Z,2.15
2023-02-01T11:30:05.167Z,2.28
2023-02-01T11:35:07.002Z,1.88
2023-02-01T11:40:17.641Z,2.28
2023-02-01T11:45:26.021Z,2.75
2023-02-01T11:50:40.267Z,2.30
2023-02-01T11:55:41.647Z,2.50
2023-02-01T12:01:00.654Z,2.58
2023-02-01T12:06:20.856Z,2.88
2023-02-01T12:11:29.969Z,3.05
2023-02-01T12:16:40.311Z,2.05
2023-02-01T12:21:56.990Z,2.35
2023-02-01T12:27:17.082Z,2.00
2023-02-01T12:32:18.387Z,2.50
2023-02-01T12:37:37.308Z,1.70
2023-02-01T12:42:40.688Z,1.97
2023-02-01T12:47:45.258Z,2.13
2023-02-01T12:52:50.859Z,2.13
2023-02-01T12:57:58.028Z,2.63
2023-02-01T13:02:59.325Z,2.55
2023-02-01T13:08:12.291Z,2.78
2023-02-01T13:13:25.197Z,2.28
2023-02-01T13:18:33.190Z,2.33
2023-02-01T13:23:38.808Z,2.83
2023-02-01T13:28:59.255Z,2.28
2023-02-01T13:34:19.083Z,2.20
2023-02-01T13:44:28.718Z,2.63
2023-02-01T13:49:32.257Z,2.80
2023-02-01T13:54:40.615Z,2.17
2023-02-01T13:59:42.047Z,1.88
2023-02-01T14:04:48.031Z,1.70
2023-02-01T14:09:49.937Z,1.90
2023-02-01T14:14:51.516Z,1.90
2023-02-01T14:20:12.866Z,2.72
2023-02-01T14:25:18.453Z,1.33
2023-02-01T14:30:20.290Z,1.92
2023-02-01T14:35:25.446Z,1.73
2023-02-01T14:40:28.415Z,1.90
2023-02-01T14:45:30.153Z,2.33
2023-02-01T14:50:36.436Z,0.93
2023-02-01T14:55:43.164Z,2.10
2023-02-01T15:01:05.113Z,1.88
2023-02-01T15:06:17.278Z,2.55
2023-02-01T15:11:18.651Z,2.65
2023-02-01T15:16:20.468Z,2.15
2023-02-01T15:26:27.081Z,2.15
2023-02-01T15:31:34.651Z,1.63
2023-02-01T15:36:38.192Z,1.50
2023-02-01T15:41:39.961Z,1.88
2023-02-01T15:46:46.219Z,2.13
2023-02-01T15:51:48.374Z,2.53
2023-02-01T15:56:56.426Z,2.85
2023-02-01T16:01:58.034Z,2.95
2023-02-01T16:07:02.677Z,1.80
2023-02-01T16:12:18.614Z,2.25
2023-02-01T16:17:20.106Z,2.03
2023-02-01T16:22:21.814Z,2.13
2023-02-01T16:27:23.677Z,2.67
2023-02-01T16:32:25.276Z,1.95
2023-02-01T16:37:28.901Z,2.17
2023-02-01T16:42:31.739Z,2.15
2023-02-01T16:47:33.264Z,2.33
2023-02-01T16:52:36.560Z,1.92
2023-02-01T16:57:37.968Z,1.65
2023-02-01T17:02:41.178Z,2.28
2023-02-01T17:07:42.759Z,1.48
2023-02-01T17:12:44.288Z,1.33
2023-02-01T17:17:45.982Z,1.95
2023-02-01T17:22:47.775Z,1.95
2023-02-01T17:27:49.439Z,2.22
2023-02-01T17:32:50.875Z,2.05
2023-02-01T17:37:53.103Z,2.13
2023-02-01T17:42:57.715Z,2.40
2023-02-01T17:47:59.310Z,2.65
2023-02-01T17:53:00.788Z,2.85
2023-02-01T17:58:02.374Z,3.35
2023-02-01T18:03:03.844Z,1.83
2023-02-01T18:08:05.606Z,2.70
2023-02-01T18:13:07.128Z,2.35
2023-02-01T18:18:08.559Z,1.80
2023-02-01T18:23:22.711Z,2.42
2023-02-01T18:28:24.196Z,2.33
2023-02-01T18:33:25.642Z,3.05
2023-02-01T18:38:27.117Z,1.85
2023-02-01T18:43:28.606Z,2.00
2023-02-01T18:48:30.240Z,3.55
2023-02-01T18:53:31.801Z,2.10
2023-02-01T18:58:33.274Z,1.77
2023-02-01T19:03:40.366Z,2.42
2023-02-01T19:08:46.288Z,1.73
2023-02-01T19:13:50.817Z,1.95
2023-02-01T19:18:53.166Z,1.90
2023-02-01T19:23:54.605Z,3.10
2023-02-01T19:28:58.296Z,2.50
2023-02-01T19:33:59.745Z,2.33
2023-02-01T19:39:01.162Z,3.58
2023-02-01T19:44:04.289Z,2.38
2023-02-01T19:49:07.812Z,3.05
2023-02-01T19:54:09.332Z,2.10
2023-02-01T19:59:12.281Z,2.58
2023-02-01T20:04:14.489Z,2.55
2023-02-01T20:09:20.958Z,2.70
2023-02-01T20:14:25.891Z,2.50
2023-02-01T20:19:27.440Z,3.85
2023-02-01T20:24:28.917Z,2.65
2023-02-01T20:29:31.293Z,1.77
2023-02-01T20:34:32.781Z,2.00
2023-02-01T20:39:34.332Z,3.58
2023-02-01T20:44:35.781Z,2.65
2023-02-01T20:49:40.297Z,2.22
2023-02-01T20:54:41.974Z,2.58
2023-02-01T20:59:43.453Z,2.88
2023-02-01T21:04:44.925Z,2.15
2023-02-01T21:09:46.401Z,2.20
2023-02-01T21:14:47.935Z,2.33
2023-02-01T21:19:49.405Z,2.25
2023-02-01T21:24:50.896Z,2.15
2023-02-01T21:29:52.361Z,3.78
2023-02-01T21:34:53.849Z,1.92
2023-02-01T21:39:56.377Z,2.55
2023-02-01T21:44:59.393Z,3.33
2023-02-01T21:50:00.878Z,2.53
2023-02-01T21:55:03.945Z,2.70
2023-02-01T22:00:08.564Z,2.80
2023-02-01T22:05:11.097Z,2.33
2023-02-01T22:10:13.179Z,3.05
2023-02-01T22:15:14.738Z,4.20
2023-02-01T22:20:16.601Z,2.45
2023-02-01T22:25:18.002Z,2.35
2023-02-01T22:30:19.500Z,3.30
2023-02-01T22:35:21.003Z,2.67
2023-02-01T22:40:22.746Z,2.78
2023-02-01T22:45:24.432Z,2.88
2023-02-01T22:50:26.103Z,3.28
2023-02-01T22:55:27.529Z,2.53
2023-02-01T23:00:29.926Z,3.50
2023-02-01T23:05:31.349Z,2.63
2023-02-01T23:10:32.804Z,2.58
2023-02-01T23:15:34.363Z,2.88
2023-02-01T23:20:35.825Z,3.00
2023-02-01T23:25:37.379Z,3.22
2023-02-01T23:30:38.979Z,3.47
2023-02-01T23:35:40.504Z,3.53
2023-02-01T23:40:41.972Z,3.28
2023-02-01T23:45:43.365Z,3.78
2023-02-01T23:50:44.861Z,3.53
2023-02-01T23:55:46.348Z,3.70
